sensor_id;sensor_type;location;lat;lon;timestamp;P1;durP1;ratioP1;P2;durP2;ratioP2
23490;SDS011;14683;50.038;8.078;2023-07-29T03:01:52;3.20;;;3.00;;
23490;SDS011;14683;50.038;8.078;2023-07-29T03:04:55;4.45;;;3.08;;
23490;SDS011;14683;50.038;8.078;2023-07-29T03:07:57;3.30;;;3.10;;
23490;SDS011;14683;50.038;8.078;2023-07-29T03:10:58;3.13;;;2.83;;
23490;SDS011;14683;50.038;8.078;2023-07-29T03:14:05;3.38;;;3.08;;
23490;SDS011;14683;50.038;8.078;2023-07-29T03:17:06;3.20;;;3.00;;
23490;SDS011;14683;50.038;8.078;2023-07-29T03:20:08;3.85;;;2.75;;
23490;SDS011;14683;50.038;8.078;2023-07-29T03:23:09;3.70;;;2.42;;
23490;SDS011;14683;50.038;8.078;2023-07-29T03:26:10;2.60;;;2.40;;
23490;SDS011;14683;50.038;8.078;2023-07-29T03:29:11;2.50;;;2.22;;
23490;SDS011;14683;50.038;8.078;2023-07-29T03:32:12;2.60;;;2.50;;
23490;SDS011;14683;50.038;8.078;2023-07-29T03:35:14;3.58;;;2.33;;
23490;SDS011;14683;50.038;8.078;2023-07-29T03:38:15;3.15;;;2.58;;
23490;SDS011;14683;50.038;8.078;2023-07-29T03:41:16;2.58;;;2.40;;
23490;SDS011;14683;50.038;8.078;2023-07-29T03:44:17;3.97;;;2.55;;
23490;SDS011;14683;50.038;8.078;2023-07-29T03:47:19;3.00;;;2.63;;
23490;SDS011;14683;50.038;8.078;2023-07-29T03:50:20;2.20;;;2.10;;
23490;SDS011;14683;50.038;8.078;2023-07-29T03:53:21;2.42;;;2.22;;
23490;SDS011;14683;50.038;8.078;2023-07-29T03:56:22;2.50;;;2.30;;
23490;SDS011;14683;50.038;8.078;2023-07-29T03:59:23;2.33;;;2.00;;
23490;SDS011;14683;50.038;8.078;2023-07-29T04:02:25;2.50;;;2.30;;
23490;SDS011;14683;50.038;8.078;2023-07-29T04:05:26;2.58;;;2.15;;
23490;SDS011;14683;50.038;8.078;2023-07-29T04:08:31;2.35;;;2.25;;
23490;SDS011;14683;50.038;8.078;2023-07-29T04:11:32;2.38;;;2.28;;
23490;SDS011;14683;50.038;8.078;2023-07-29T04:14:33;2.60;;;2.40;;
23490;SDS011;14683;50.038;8.078;2023-07-29T04:17:35;3.08;;;2.55;;
23490;SDS011;14683;50.038;8.078;2023-07-29T04:20:37;3.25;;;2.60;;
23490;SDS011;14683;50.038;8.078;2023-07-29T04:23:38;2.97;;;2.78;;
23490;SDS011;14683;50.038;8.078;2023-07-29T04:26:40;4.20;;;2.80;;
23490;SDS011;14683;50.038;8.078;2023-07-29T04:29:42;3.05;;;2.70;;
23490;SDS011;14683;50.038;8.078;2023-07-29T04:32:43;3.30;;;2.75;;
23490;SDS011;14683;50.038;8.078;2023-07-29T04:35:45;3.78;;;2.88;;
23490;SDS011;14683;50.038;8.078;2023-07-29T04:38:47;3.50;;;2.95;;
23490;SDS011;14683;50.038;8.078;2023-07-29T04:41:48;3.00;;;2.80;;
23490;SDS011;14683;50.038;8.078;2023-07-29T04:44:50;3.33;;;3.08;;
23490;SDS011;14683;50.038;8.078;2023-07-29T04:47:51;3.78;;;3.47;;
23490;SDS011;14683;50.038;8.078;2023-07-29T04:50:52;3.17;;;2.97;;
23490;SDS011;14683;50.038;8.078;2023-07-29T04:53:53;3.60;;;3.30;;
23490;SDS011;14683;50.038;8.078;2023-07-29T04:56:54;3.45;;;3.03;;
23490;SDS011;14683;50.038;8.078;2023-07-29T04:59:55;3.30;;;3.00;;
23490;SDS011;14683;50.038;8.078;2023-07-29T05:02:57;4.05;;;2.65;;
23490;SDS011;14683;50.038;8.078;2023-07-29T05:05:58;2.90;;;2.70;;
23490;SDS011;14683;50.038;8.078;2023-07-29T05:09:14;2.47;;;2.30;;
23490;SDS011;14683;50.038;8.078;2023-07-29T05:12:16;2.67;;;2.47;;
23490;SDS011;14683;50.038;8.078;2023-07-29T05:15:17;3.05;;;2.50;;
23490;SDS011;14683;50.038;8.078;2023-07-29T05:18:19;2.50;;;2.38;;
23490;SDS011;14683;50.038;8.078;2023-07-29T05:21:21;2.42;;;2.33;;
23490;SDS011;14683;50.038;8.078;2023-07-29T05:24:23;2.45;;;2.30;;
23490;SDS011;14683;50.038;8.078;2023-07-29T05:27:24;3.00;;;2.20;;
23490;SDS011;14683;50.038;8.078;2023-07-29T05:30:29;2.45;;;2.30;;
23490;SDS011;14683;50.038;8.078;2023-07-29T05:33:34;2.53;;;2.33;;
23490;SDS011;14683;50.038;8.078;2023-07-29T05:36:37;3.20;;;2.17;;
23490;SDS011;14683;50.038;8.078;2023-07-29T05:39:38;2.92;;;2.38;;
23490;SDS011;14683;50.038;8.078;2023-07-29T05:42:39;3.30;;;2.30;;
23490;SDS011;14683;50.038;8.078;2023-07-29T05:45:40;4.57;;;3.20;;
23490;SDS011;14683;50.038;8.078;2023-07-29T05:48:41;8.85;;;4.07;;
23490;SDS011;14683;50.038;8.078;2023-07-29T05:51:43;4.13;;;3.25;;
23490;SDS011;14683;50.038;8.078;2023-07-29T05:54:44;4.38;;;2.60;;
23490;SDS011;14683;50.038;8.078;2023-07-29T05:57:47;3.28;;;2.95;;
23490;SDS011;14683;50.038;8.078;2023-07-29T06:00:48;2.78;;;2.25;;
23490;SDS011;14683;50.038;8.078;2023-07-29T06:03:50;3.05;;;2.38;;
23490;SDS011;14683;50.038;8.078;2023-07-29T06:06:51;3.13;;;2.75;;
23490;SDS011;14683;50.038;8.078;2023-07-29T06:09:52;3.00;;;2.80;;
23490;SDS011;14683;50.038;8.078;2023-07-29T06:12:54;2.63;;;2.42;;
23490;SDS011;14683;50.038;8.078;2023-07-29T06:15:55;2.00;;;1.90;;
23490;SDS011;14683;50.038;8.078;2023-07-29T06:18:57;2.00;;;1.90;;
23490;SDS011;14683;50.038;8.078;2023-07-29T06:21:58;1.90;;;1.80;;
23490;SDS011;14683;50.038;8.078;2023-07-29T06:25:02;2.05;;;1.95;;
23490;SDS011;14683;50.038;8.078;2023-07-29T06:28:03;1.70;;;1.60;;
23490;SDS011;14683;50.038;8.078;2023-07-29T06:31:05;2.35;;;2.20;;
23490;SDS011;14683;50.038;8.078;2023-07-29T06:34:06;2.20;;;1.98;;
23490;SDS011;14683;50.038;8.078;2023-07-29T06:37:07;2.67;;;1.88;;
23490;SDS011;14683;50.038;8.078;2023-07-29T06:40:09;2.10;;;2.00;;
23490;SDS011;14683;50.038;8.078;2023-07-29T06:43:10;2.53;;;2.22;;
23490;SDS011;14683;50.038;8.078;2023-07-29T06:46:11;2.97;;;2.70;;
23490;SDS011;14683;50.038;8.078;2023-07-29T06:49:12;2.83;;;2.35;;
23490;SDS011;14683;50.038;8.078;2023-07-29T06:52:13;2.42;;;2.33;;
23490;SDS011;14683;50.038;8.078;2023-07-29T06:55:15;3.38;;;2.88;;
23490;SDS011;14683;50.038;8.078;2023-07-29T06:58:16;3.38;;;2.33;;
23490;SDS011;14683;50.038;8.078;2023-07-29T07:01:17;2.80;;;2.60;;
23490;SDS011;14683;50.038;8.078;2023-07-29T07:04:18;3.10;;;2.80;;
23490;SDS011;14683;50.038;8.078;2023-07-29T07:07:19;2.88;;;2.60;;
23490;SDS011;14683;50.038;8.078;2023-07-29T07:10:20;2.80;;;2.60;;
23490;SDS011;14683;50.038;8.078;2023-07-29T07:13:21;2.97;;;2.78;;
23490;SDS011;14683;50.038;8.078;2023-07-29T07:16:23;5.93;;;3.45;;
23490;SDS011;14683;50.038;8.078;2023-07-29T07:19:24;4.72;;;3.03;;
23490;SDS011;14683;50.038;8.078;2023-07-29T07:22:25;4.28;;;3.38;;
23490;SDS011;14683;50.038;8.078;2023-07-29T07:25:26;3.83;;;3.40;;
23490;SDS011;14683;50.038;8.078;2023-07-29T07:28:27;4.15;;;3.70;;
23490;SDS011;14683;50.038;8.078;2023-07-29T07:31:28;3.40;;;3.15;;
23490;SDS011;14683;50.038;8.078;2023-07-29T07:34:33;4.35;;;3.97;;
23490;SDS011;14683;50.038;8.078;2023-07-29T07:37:35;3.65;;;3.35;;
23490;SDS011;14683;50.038;8.078;2023-07-29T07:40:36;4.30;;;3.90;;
23490;SDS011;14683;50.038;8.078;2023-07-29T07:43:37;4.20;;;3.90;;
23490;SDS011;14683;50.038;8.078;2023-07-29T07:46:38;4.10;;;3.80;;
23490;SDS011;14683;50.038;8.078;2023-07-29T07:49:39;5.28;;;4.25;;
23490;SDS011;14683;50.038;8.078;2023-07-29T07:52:40;4.45;;;4.05;;
23490;SDS011;14683;50.038;8.078;2023-07-29T07:55:41;4.47;;;4.18;;
23490;SDS011;14683;50.038;8.078;2023-07-29T07:58:42;5.07;;;4.60;;
23490;SDS011;14683;50.038;8.078;2023-07-29T08:01:44;4.30;;;3.95;;
23490;SDS011;14683;50.038;8.078;2023-07-29T08:04:45;3.88;;;3.58;;
23490;SDS011;14683;50.038;8.078;2023-07-29T08:07:46;3.22;;;2.75;;
23490;SDS011;14683;50.038;8.078;2023-07-29T08:10:47;3.25;;;2.95;;
23490;SDS011;14683;50.038;8.078;2023-07-29T08:13:48;3.10;;;2.88;;
23490;SDS011;14683;50.038;8.078;2023-07-29T08:16:50;3.15;;;2.25;;
23490;SDS011;14683;50.038;8.078;2023-07-29T08:19:51;3.75;;;2.38;;
23490;SDS011;14683;50.038;8.078;2023-07-29T08:22:52;3.03;;;2.70;;
23490;SDS011;14683;50.038;8.078;2023-07-29T08:25:53;2.30;;;2.20;;
23490;SDS011;14683;50.038;8.078;2023-07-29T08:28:56;2.20;;;2.10;;
23490;SDS011;14683;50.038;8.078;2023-07-29T08:31:57;2.13;;;2.03;;
23490;SDS011;14683;50.038;8.078;2023-07-29T08:34:59;2.78;;;2.33;;
23490;SDS011;14683;50.038;8.078;2023-07-29T08:38:01;2.38;;;2.00;;
23490;SDS011;14683;50.038;8.078;2023-07-29T08:47:17;2.03;;;1.85;;
23490;SDS011;14683;50.038;8.078;2023-07-29T08:50:19;1.80;;;1.70;;
23490;SDS011;14683;50.038;8.078;2023-07-29T08:53:20;1.90;;;1.80;;
23490;SDS011;14683;50.038;8.078;2023-07-29T08:56:22;1.98;;;1.70;;
23490;SDS011;14683;50.038;8.078;2023-07-29T08:59:24;1.98;;;1.60;;
23490;SDS011;14683;50.038;8.078;2023-07-29T09:02:26;2.05;;;1.85;;
23490;SDS011;14683;50.038;8.078;2023-07-29T09:05:27;2.65;;;1.50;;
23490;SDS011;14683;50.038;8.078;2023-07-29T09:08:28;2.85;;;1.58;;
23490;SDS011;14683;50.038;8.078;2023-07-29T09:11:30;2.15;;;1.52;;
23490;SDS011;14683;50.038;8.078;2023-07-29T09:14:31;1.63;;;1.50;;
23490;SDS011;14683;50.038;8.078;2023-07-29T09:17:33;1.58;;;1.48;;
23490;SDS011;14683;50.038;8.078;2023-07-29T09:20:34;2.55;;;1.38;;
23490;SDS011;14683;50.038;8.078;2023-07-29T09:23:39;1.45;;;1.35;;
23490;SDS011;14683;50.038;8.078;2023-07-29T09:26:48;1.38;;;1.30;;
23490;SDS011;14683;50.038;8.078;2023-07-29T09:29:50;1.13;;;1.13;;
23490;SDS011;14683;50.038;8.078;2023-07-29T09:32:55;1.63;;;1.50;;
23490;SDS011;14683;50.038;8.078;2023-07-29T09:35:57;1.75;;;1.38;;
23490;SDS011;14683;50.038;8.078;2023-07-29T09:38:58;1.98;;;1.20;;
23490;SDS011;14683;50.038;8.078;2023-07-29T09:41:59;1.63;;;1.27;;
23490;SDS011;14683;50.038;8.078;2023-07-29T09:45:01;1.30;;;1.20;;
23490;SDS011;14683;50.038;8.078;2023-07-29T09:48:02;2.22;;;1.33;;
23490;SDS011;14683;50.038;8.078;2023-07-29T09:51:12;1.45;;;1.35;;
23490;SDS011;14683;50.038;8.078;2023-07-29T09:54:14;1.70;;;1.27;;
23490;SDS011;14683;50.038;8.078;2023-07-29T09:57:18;1.58;;;1.30;;
23490;SDS011;14683;50.038;8.078;2023-07-29T10:00:19;1.95;;;1.38;;
23490;SDS011;14683;50.038;8.078;2023-07-29T10:03:20;2.88;;;1.70;;
23490;SDS011;14683;50.038;8.078;2023-07-29T10:06:22;1.40;;;1.30;;
23490;SDS011;14683;50.038;8.078;2023-07-29T10:09:23;1.52;;;1.30;;
23490;SDS011;14683;50.038;8.078;2023-07-29T10:12:25;1.85;;;1.30;;
23490;SDS011;14683;50.038;8.078;2023-07-29T10:15:26;1.50;;;1.40;;
23490;SDS011;14683;50.038;8.078;2023-07-29T10:18:28;1.30;;;1.30;;
23490;SDS011;14683;50.038;8.078;2023-07-29T10:21:30;1.38;;;1.30;;
23490;SDS011;14683;50.038;8.078;2023-07-29T10:24:32;1.40;;;1.30;;
23490;SDS011;14683;50.038;8.078;2023-07-29T10:30:50;3.85;;;1.63;;
23490;SDS011;14683;50.038;8.078;2023-07-29T10:33:52;1.60;;;1.50;;
23490;SDS011;14683;50.038;8.078;2023-07-29T10:36:54;1.60;;;1.50;;
23490;SDS011;14683;50.038;8.078;2023-07-29T10:39:56;1.40;;;1.30;;
23490;SDS011;14683;50.038;8.078;2023-07-29T10:43:01;2.00;;;1.67;;
23490;SDS011;14683;50.038;8.078;2023-07-29T10:46:19;1.40;;;1.30;;
23490;SDS011;14683;50.038;8.078;2023-07-29T10:49:23;1.57;;;1.37;;
23490;SDS011;14683;50.038;8.078;2023-07-29T10:52:32;1.30;;;1.20;;
23490;SDS011;14683;50.038;8.078;2023-07-29T10:55:41;2.05;;;1.08;;
23490;SDS011;14683;50.038;8.078;2023-07-29T10:58:44;1.50;;;1.40;;
23490;SDS011;14683;50.038;8.078;2023-07-29T11:01:58;1.10;;;1.10;;
23490;SDS011;14683;50.038;8.078;2023-07-29T11:05:04;1.30;;;1.20;;
23490;SDS011;14683;50.038;8.078;2023-07-29T11:08:15;2.55;;;1.27;;
23490;SDS011;14683;50.038;8.078;2023-07-29T11:11:18;1.67;;;1.05;;
23490;SDS011;14683;50.038;8.078;2023-07-29T11:14:19;1.27;;;1.13;;
23490;SDS011;14683;50.038;8.078;2023-07-29T11:17:21;1.80;;;1.15;;
23490;SDS011;14683;50.038;8.078;2023-07-29T11:23:34;1.20;;;1.20;;
23490;SDS011;14683;50.038;8.078;2023-07-29T11:26:37;1.65;;;1.23;;
23490;SDS011;14683;50.038;8.078;2023-07-29T11:29:38;1.17;;;1.13;;
23490;SDS011;14683;50.038;8.078;2023-07-29T11:32:40;1.30;;;1.20;;
23490;SDS011;14683;50.038;8.078;2023-07-29T11:35:42;2.80;;;1.10;;
23490;SDS011;14683;50.038;8.078;2023-07-29T11:38:43;1.40;;;1.30;;
23490;SDS011;14683;50.038;8.078;2023-07-29T11:41:45;1.88;;;1.10;;
23490;SDS011;14683;50.038;8.078;2023-07-29T11:44:47;1.40;;;1.20;;
23490;SDS011;14683;50.038;8.078;2023-07-29T11:47:48;1.33;;;1.23;;
23490;SDS011;14683;50.038;8.078;2023-07-29T11:50:49;1.40;;;1.30;;
23490;SDS011;14683;50.038;8.078;2023-07-29T11:53:50;1.35;;;1.30;;
23490;SDS011;14683;50.038;8.078;2023-07-29T11:56:52;1.77;;;1.30;;
23490;SDS011;14683;50.038;8.078;2023-07-29T11:59:53;1.33;;;1.27;;
23490;SDS011;14683;50.038;8.078;2023-07-29T12:02:54;1.73;;;1.27;;
23490;SDS011;14683;50.038;8.078;2023-07-29T12:05:55;1.55;;;1.40;;
23490;SDS011;14683;50.038;8.078;2023-07-29T12:08:57;1.20;;;1.10;;
23490;SDS011;14683;50.038;8.078;2023-07-29T12:11:58;1.10;;;1.10;;
23490;SDS011;14683;50.038;8.078;2023-07-29T12:15:00;1.08;;;1.08;;
23490;SDS011;14683;50.038;8.078;2023-07-29T12:18:01;1.70;;;1.10;;
23490;SDS011;14683;50.038;8.078;2023-07-29T12:21:03;1.33;;;1.20;;
23490;SDS011;14683;50.038;8.078;2023-07-29T12:24:04;1.17;;;1.15;;
23490;SDS011;14683;50.038;8.078;2023-07-29T12:27:09;1.20;;;1.10;;
23490;SDS011;14683;50.038;8.078;2023-07-29T12:30:12;1.23;;;1.13;;
23490;SDS011;14683;50.038;8.078;2023-07-29T12:33:28;1.33;;;1.23;;
23490;SDS011;14683;50.038;8.078;2023-07-29T12:36:46;1.10;;;1.10;;
23490;SDS011;14683;50.038;8.078;2023-07-29T12:39:51;1.40;;;1.30;;
23490;SDS011;14683;50.038;8.078;2023-07-29T12:42:52;1.50;;;0.90;;
23490;SDS011;14683;50.038;8.078;2023-07-29T12:45:54;1.58;;;0.93;;
23490;SDS011;14683;50.038;8.078;2023-07-29T12:48:55;1.35;;;1.25;;
23490;SDS011;14683;50.038;8.078;2023-07-29T12:51:56;1.00;;;1.00;;
23490;SDS011;14683;50.038;8.078;2023-07-29T12:55:01;1.50;;;1.30;;
23490;SDS011;14683;50.038;8.078;2023-07-29T12:58:02;1.10;;;1.00;;
23490;SDS011;14683;50.038;8.078;2023-07-29T13:01:04;1.25;;;1.15;;
23490;SDS011;14683;50.038;8.078;2023-07-29T13:04:05;1.42;;;1.33;;
23490;SDS011;14683;50.038;8.078;2023-07-29T13:07:06;1.42;;;1.00;;
23490;SDS011;14683;50.038;8.078;2023-07-29T13:10:08;1.00;;;1.00;;
23490;SDS011;14683;50.038;8.078;2023-07-29T13:13:10;2.00;;;1.50;;
23490;SDS011;14683;50.038;8.078;2023-07-29T13:16:11;1.10;;;1.10;;
23490;SDS011;14683;50.038;8.078;2023-07-29T13:19:13;1.67;;;1.30;;
23490;SDS011;14683;50.038;8.078;2023-07-29T13:22:14;1.40;;;1.30;;
23490;SDS011;14683;50.038;8.078;2023-07-29T13:25:15;1.38;;;1.27;;
23490;SDS011;14683;50.038;8.078;2023-07-29T13:28:16;1.50;;;1.30;;
23490;SDS011;14683;50.038;8.078;2023-07-29T13:31:19;1.40;;;1.30;;
23490;SDS011;14683;50.038;8.078;2023-07-29T13:34:20;1.30;;;1.20;;
23490;SDS011;14683;50.038;8.078;2023-07-29T13:37:22;1.25;;;1.05;;
23490;SDS011;14683;50.038;8.078;2023-07-29T13:40:23;1.63;;;1.27;;
23490;SDS011;14683;50.038;8.078;2023-07-29T13:43:24;1.70;;;0.98;;
23490;SDS011;14683;50.038;8.078;2023-07-29T13:46:26;1.50;;;1.40;;
23490;SDS011;14683;50.038;8.078;2023-07-29T13:49:30;1.95;;;1.30;;
23490;SDS011;14683;50.038;8.078;2023-07-29T13:52:31;1.20;;;1.10;;
23490;SDS011;14683;50.038;8.078;2023-07-29T13:55:32;6.43;;;1.55;;
23490;SDS011;14683;50.038;8.078;2023-07-29T13:58:33;1.45;;;1.35;;
23490;SDS011;14683;50.038;8.078;2023-07-29T14:01:35;1.02;;;1.00;;
23490;SDS011;14683;50.038;8.078;2023-07-29T14:04:36;1.30;;;1.20;;
23490;SDS011;14683;50.038;8.078;2023-07-29T14:07:37;1.40;;;1.13;;
23490;SDS011;14683;50.038;8.078;2023-07-29T14:10:38;1.23;;;1.10;;
23490;SDS011;14683;50.038;8.078;2023-07-29T14:13:39;1.27;;;1.27;;
23490;SDS011;14683;50.038;8.078;2023-07-29T14:16:40;1.35;;;1.25;;
23490;SDS011;14683;50.038;8.078;2023-07-29T14:19:41;1.38;;;1.27;;
23490;SDS011;14683;50.038;8.078;2023-07-29T14:22:43;2.72;;;1.30;;
23490;SDS011;14683;50.038;8.078;2023-07-29T14:25:44;0.95;;;0.88;;
23490;SDS011;14683;50.038;8.078;2023-07-29T14:28:45;1.30;;;1.20;;
23490;SDS011;14683;50.038;8.078;2023-07-29T14:31:46;1.30;;;1.20;;
23490;SDS011;14683;50.038;8.078;2023-07-29T14:34:47;2.40;;;1.17;;
23490;SDS011;14683;50.038;8.078;2023-07-29T14:37:49;1.33;;;1.13;;
23490;SDS011;14683;50.038;8.078;2023-07-29T14:40:50;1.70;;;1.08;;
23490;SDS011;14683;50.038;8.078;2023-07-29T14:43:54;1.55;;;1.10;;
23490;SDS011;14683;50.038;8.078;2023-07-29T14:46:55;2.08;;;1.35;;
23490;SDS011;14683;50.038;8.078;2023-07-29T14:49:56;1.67;;;1.25;;
23490;SDS011;14683;50.038;8.078;2023-07-29T14:52:57;2.20;;;1.67;;
23490;SDS011;14683;50.038;8.078;2023-07-29T14:55:58;1.20;;;1.20;;
23490;SDS011;14683;50.038;8.078;2023-07-29T14:58:59;2.60;;;1.55;;
23490;SDS011;14683;50.038;8.078;2023-07-29T15:02:01;1.50;;;1.40;;
23490;SDS011;14683;50.038;8.078;2023-07-29T15:05:02;1.10;;;1.10;;
23490;SDS011;14683;50.038;8.078;2023-07-29T15:08:03;1.25;;;1.15;;
23490;SDS011;14683;50.038;8.078;2023-07-29T15:11:04;1.52;;;1.30;;
23490;SDS011;14683;50.038;8.078;2023-07-29T15:14:06;1.55;;;1.00;;
23490;SDS011;14683;50.038;8.078;2023-07-29T15:17:07;1.30;;;1.10;;
23490;SDS011;14683;50.038;8.078;2023-07-29T15:20:09;1.20;;;1.10;;
23490;SDS011;14683;50.038;8.078;2023-07-29T15:23:11;1.30;;;1.20;;
23490;SDS011;14683;50.038;8.078;2023-07-29T15:26:12;1.33;;;1.23;;
23490;SDS011;14683;50.038;8.078;2023-07-29T15:29:13;1.38;;;1.27;;
23490;SDS011;14683;50.038;8.078;2023-07-29T15:32:14;1.63;;;1.40;;
23490;SDS011;14683;50.038;8.078;2023-07-29T15:35:15;1.20;;;1.10;;
23490;SDS011;14683;50.038;8.078;2023-07-29T15:38:16;1.20;;;1.10;;
23490;SDS011;14683;50.038;8.078;2023-07-29T15:41:18;1.30;;;1.20;;
23490;SDS011;14683;50.038;8.078;2023-07-29T15:44:19;1.10;;;1.00;;
23490;SDS011;14683;50.038;8.078;2023-07-29T15:47:20;2.55;;;1.20;;
23490;SDS011;14683;50.038;8.078;2023-07-29T15:50:21;1.80;;;1.30;;
23490;SDS011;14683;50.038;8.078;2023-07-29T15:53:22;1.40;;;1.30;;
23490;SDS011;14683;50.038;8.078;2023-07-29T15:56:25;1.40;;;1.30;;
23490;SDS011;14683;50.038;8.078;2023-07-29T15:59:28;1.55;;;1.45;;
23490;SDS011;14683;50.038;8.078;2023-07-29T16:02:29;1.10;;;1.10;;
23490;SDS011;14683;50.038;8.078;2023-07-29T16:05:31;1.60;;;1.38;;
23490;SDS011;14683;50.038;8.078;2023-07-29T16:08:32;1.52;;;1.42;;
23490;SDS011;14683;50.038;8.078;2023-07-29T16:11:33;1.15;;;1.15;;
23490;SDS011;14683;50.038;8.078;2023-07-29T16:14:34;1.27;;;1.05;;
23490;SDS011;14683;50.038;8.078;2023-07-29T16:17:35;1.60;;;1.10;;
23490;SDS011;14683;50.038;8.078;2023-07-29T16:20:36;1.20;;;1.20;;
23490;SDS011;14683;50.038;8.078;2023-07-29T16:23:38;1.58;;;1.45;;
23490;SDS011;14683;50.038;8.078;2023-07-29T16:26:39;4.78;;;2.58;;
23490;SDS011;14683;50.038;8.078;2023-07-29T16:29:40;0.98;;;0.98;;
23490;SDS011;14683;50.038;8.078;2023-07-29T16:32:41;2.35;;;1.00;;
23490;SDS011;14683;50.038;8.078;2023-07-29T16:35:42;1.30;;;1.10;;
23490;SDS011;14683;50.038;8.078;2023-07-29T16:38:43;1.52;;;1.42;;
23490;SDS011;14683;50.038;8.078;2023-07-29T16:41:44;1.40;;;1.30;;
23490;SDS011;14683;50.038;8.078;2023-07-29T16:44:46;1.17;;;1.10;;
23490;SDS011;14683;50.038;8.078;2023-07-29T16:47:47;1.58;;;1.40;;
23490;SDS011;14683;50.038;8.078;2023-07-29T16:50:48;1.52;;;1.20;;
23490;SDS011;14683;50.038;8.078;2023-07-29T16:53:50;1.30;;;1.20;;
23490;SDS011;14683;50.038;8.078;2023-07-29T16:56:54;0.95;;;0.95;;
23490;SDS011;14683;50.038;8.078;2023-07-29T16:59:55;1.23;;;1.20;;
23490;SDS011;14683;50.038;8.078;2023-07-29T17:02:56;1.30;;;1.20;;
23490;SDS011;14683;50.038;8.078;2023-07-29T17:05:57;1.50;;;1.40;;
23490;SDS011;14683;50.038;8.078;2023-07-29T17:08:58;1.20;;;1.10;;
23490;SDS011;14683;50.038;8.078;2023-07-29T17:11:59;3.38;;;1.25;;
23490;SDS011;14683;50.038;8.078;2023-07-29T17:15:01;2.08;;;1.00;;
23490;SDS011;14683;50.038;8.078;2023-07-29T17:18:02;1.40;;;1.30;;
23490;SDS011;14683;50.038;8.078;2023-07-29T17:21:04;2.05;;;1.00;;
23490;SDS011;14683;50.038;8.078;2023-07-29T17:24:05;1.25;;;1.15;;
23490;SDS011;14683;50.038;8.078;2023-07-29T17:27:07;1.50;;;1.30;;
23490;SDS011;14683;50.038;8.078;2023-07-29T17:30:08;2.20;;;1.33;;
23490;SDS011;14683;50.038;8.078;2023-07-29T17:33:12;1.30;;;1.20;;
23490;SDS011;14683;50.038;8.078;2023-07-29T17:36:13;1.20;;;1.20;;
23490;SDS011;14683;50.038;8.078;2023-07-29T17:39:15;2.20;;;1.20;;
23490;SDS011;14683;50.038;8.078;2023-07-29T17:42:16;1.42;;;1.33;;
23490;SDS011;14683;50.038;8.078;2023-07-29T17:45:17;1.00;;;1.00;;
23490;SDS011;14683;50.038;8.078;2023-07-29T17:48:18;1.38;;;1.25;;
23490;SDS011;14683;50.038;8.078;2023-07-29T17:51:19;1.48;;;1.38;;
23490;SDS011;14683;50.038;8.078;2023-07-29T17:54:20;1.08;;;1.08;;
23490;SDS011;14683;50.038;8.078;2023-07-29T17:57:21;1.15;;;1.15;;
23490;SDS011;14683;50.038;8.078;2023-07-29T18:00:22;1.58;;;1.48;;
23490;SDS011;14683;50.038;8.078;2023-07-29T18:03:24;1.30;;;1.20;;
23490;SDS011;14683;50.038;8.078;2023-07-29T18:06:25;1.60;;;1.50;;
23490;SDS011;14683;50.038;8.078;2023-07-29T18:09:26;5.35;;;1.65;;
23490;SDS011;14683;50.038;8.078;2023-07-29T18:12:28;1.35;;;1.35;;
23490;SDS011;14683;50.038;8.078;2023-07-29T18:15:29;1.10;;;1.10;;
23490;SDS011;14683;50.038;8.078;2023-07-29T18:18:31;1.50;;;1.42;;
23490;SDS011;14683;50.038;8.078;2023-07-29T18:21:32;1.35;;;1.27;;
23490;SDS011;14683;50.038;8.078;2023-07-29T18:24:34;1.40;;;1.30;;
23490;SDS011;14683;50.038;8.078;2023-07-29T18:27:35;1.55;;;1.45;;
23490;SDS011;14683;50.038;8.078;2023-07-29T18:30:37;1.42;;;1.33;;
23490;SDS011;14683;50.038;8.078;2023-07-29T18:33:38;1.20;;;1.20;;
23490;SDS011;14683;50.038;8.078;2023-07-29T18:36:39;1.80;;;1.23;;
23490;SDS011;14683;50.038;8.078;2023-07-29T18:39:40;2.05;;;1.50;;
23490;SDS011;14683;50.038;8.078;2023-07-29T18:42:41;1.48;;;1.38;;
23490;SDS011;14683;50.038;8.078;2023-07-29T18:45:42;1.55;;;1.45;;
23490;SDS011;14683;50.038;8.078;2023-07-29T18:48:43;1.52;;;1.42;;
23490;SDS011;14683;50.038;8.078;2023-07-29T18:51:45;1.40;;;1.30;;
23490;SDS011;14683;50.038;8.078;2023-07-29T18:54:46;1.52;;;1.42;;
23490;SDS011;14683;50.038;8.078;2023-07-29T18:57:47;1.42;;;1.33;;
23490;SDS011;14683;50.038;8.078;2023-07-29T19:00:49;1.65;;;1.55;;
23490;SDS011;14683;50.038;8.078;2023-07-29T19:03:51;1.40;;;1.30;;
23490;SDS011;14683;50.038;8.078;2023-07-29T19:06:52;1.48;;;1.38;;
23490;SDS011;14683;50.038;8.078;2023-07-29T19:09:55;2.13;;;1.60;;
23490;SDS011;14683;50.038;8.078;2023-07-29T19:12:58;1.38;;;1.27;;
23490;SDS011;14683;50.038;8.078;2023-07-29T19:15:59;1.70;;;1.60;;
23490;SDS011;14683;50.038;8.078;2023-07-29T19:19:03;1.70;;;1.60;;
23490;SDS011;14683;50.038;8.078;2023-07-29T19:22:04;1.50;;;1.40;;
23490;SDS011;14683;50.038;8.078;2023-07-29T19:25:06;1.73;;;1.40;;
23490;SDS011;14683;50.038;8.078;2023-07-29T19:28:09;1.73;;;1.63;;
23490;SDS011;14683;50.038;8.078;2023-07-29T19:31:10;1.38;;;1.20;;
23490;SDS011;14683;50.038;8.078;2023-07-29T19:34:11;1.60;;;1.50;;
23490;SDS011;14683;50.038;8.078;2023-07-29T19:37:12;1.58;;;1.48;;
23490;SDS011;14683;50.038;8.078;2023-07-29T19:40:16;1.90;;;1.50;;
23490;SDS011;14683;50.038;8.078;2023-07-29T19:43:17;1.60;;;1.50;;
23490;SDS011;14683;50.038;8.078;2023-07-29T19:46:18;1.67;;;1.58;;
23490;SDS011;14683;50.038;8.078;2023-07-29T19:49:20;1.60;;;1.50;;
23490;SDS011;14683;50.038;8.078;2023-07-29T19:52:21;1.50;;;1.40;;
23490;SDS011;14683;50.038;8.078;2023-07-29T19:55:22;1.80;;;1.67;;
23490;SDS011;14683;50.038;8.078;2023-07-29T19:58:24;1.60;;;1.50;;
23490;SDS011;14683;50.038;8.078;2023-07-29T20:01:26;1.85;;;1.70;;
23490;SDS011;14683;50.038;8.078;2023-07-29T20:04:27;1.63;;;1.50;;
23490;SDS011;14683;50.038;8.078;2023-07-29T20:07:29;1.80;;;1.70;;
23490;SDS011;14683;50.038;8.078;2023-07-29T20:10:31;1.60;;;1.50;;
23490;SDS011;14683;50.038;8.078;2023-07-29T20:13:32;3.63;;;1.83;;
23490;SDS011;14683;50.038;8.078;2023-07-29T20:16:35;1.77;;;1.67;;
23490;SDS011;14683;50.038;8.078;2023-07-29T20:19:36;1.65;;;1.55;;
23490;SDS011;14683;50.038;8.078;2023-07-29T20:22:37;1.70;;;1.60;;
23490;SDS011;14683;50.038;8.078;2023-07-29T20:25:38;1.80;;;1.70;;
23490;SDS011;14683;50.038;8.078;2023-07-29T20:28:39;2.25;;;1.70;;
23490;SDS011;14683;50.038;8.078;2023-07-29T20:31:40;2.53;;;1.70;;
23490;SDS011;14683;50.038;8.078;2023-07-29T20:34:41;1.80;;;1.70;;
23490;SDS011;14683;50.038;8.078;2023-07-29T20:37:42;2.30;;;1.98;;
23490;SDS011;14683;50.038;8.078;2023-07-29T20:40:50;2.75;;;1.80;;
23490;SDS011;14683;50.038;8.078;2023-07-29T20:43:51;1.90;;;1.80;;
23490;SDS011;14683;50.038;8.078;2023-07-29T20:46:53;2.40;;;1.73;;
23490;SDS011;14683;50.038;8.078;2023-07-29T20:49:54;1.60;;;1.50;;
23490;SDS011;14683;50.038;8.078;2023-07-29T20:52:55;1.73;;;1.50;;
23490;SDS011;14683;50.038;8.078;2023-07-29T20:55:56;1.63;;;1.50;;
